createdAt,value
2023-04-06T00:02:13.235Z,7.30
2023-04-06T00:04:41.800Z,6.30
2023-04-06T00:07:10.414Z,6.50
2023-04-06T00:09:38.386Z,8.10
2023-04-06T00:12:06.663Z,7.80
2023-04-06T00:14:35.553Z,8.40
2023-04-06T00:17:03.525Z,8.20
2023-04-06T00:19:34.242Z,8.20
2023-04-06T00:22:03.469Z,7.70
2023-04-06T00:24:31.464Z,8.40
2023-04-06T00:26:59.257Z,9.90
2023-04-06T00:29:27.069Z,9.30
2023-04-06T00:31:55.473Z,9.00
2023-04-06T00:34:23.414Z,8.90
2023-04-06T00:36:51.716Z,8.70
2023-04-06T00:39:21.090Z,9.70
2023-04-06T00:41:51.339Z,8.90
2023-04-06T00:44:19.835Z,9.00
2023-04-06T00:46:47.937Z,9.70
2023-04-06T00:49:16.409Z,9.30
2023-04-06T00:51:44.604Z,9.10
2023-04-06T00:54:13.049Z,8.40
2023-04-06T00:56:42.558Z,8.40
2023-04-06T00:59:12.058Z,9.30
2023-04-06T01:01:41.653Z,9.50
2023-04-06T01:04:24.195Z,9.10
2023-04-06T01:06:54.734Z,9.20
2023-04-06T01:09:28.570Z,9.10
2023-04-06T01:11:57.940Z,9.60
2023-04-06T01:14:30.597Z,9.50
2023-04-06T01:17:01.985Z,10.80
2023-04-06T01:19:32.890Z,9.60
2023-04-06T01:22:01.023Z,8.20
2023-04-06T01:24:31.734Z,8.80
2023-04-06T01:27:22.966Z,9.80
2023-04-06T01:30:21.678Z,9.00
2023-04-06T01:32:54.115Z,10.10
2023-04-06T01:35:31.276Z,9.80
2023-04-06T01:38:11.426Z,10.70
2023-04-06T01:40:40.502Z,10.70
2023-04-06T01:43:08.450Z,10.80
2023-04-06T01:45:42.809Z,8.80
2023-04-06T01:48:18.038Z,10.50
2023-04-06T01:50:46.010Z,8.40
2023-04-06T01:53:16.581Z,9.30
2023-04-06T01:55:44.977Z,10.60
2023-04-06T01:58:19.154Z,10.90
2023-04-06T02:00:47.518Z,9.70
2023-04-06T02:03:16.481Z,10.20
2023-04-06T02:05:44.426Z,10.10
2023-04-06T02:08:24.367Z,12.00
2023-04-06T02:10:53.477Z,10.60
2023-04-06T02:13:30.550Z,11.10
2023-04-06T02:15:58.844Z,10.20
2023-04-06T02:18:31.155Z,9.70
2023-04-06T02:20:59.016Z,9.90
2023-04-06T02:23:27.978Z,8.80
2023-04-06T02:25:59.068Z,9.50
2023-04-06T02:28:27.398Z,8.70
2023-04-06T02:30:55.449Z,8.60
2023-04-06T02:33:27.838Z,9.10
2023-04-06T02:35:56.185Z,9.50
2023-04-06T02:38:25.003Z,8.90
2023-04-06T02:40:53.724Z,8.50
2023-04-06T02:43:27.940Z,9.20
2023-04-06T02:46:03.154Z,8.40
2023-04-06T02:48:32.569Z,9.50
2023-04-06T02:51:00.633Z,9.80
2023-04-06T02:53:29.365Z,9.60
2023-04-06T02:55:57.295Z,8.60
2023-04-06T02:58:28.736Z,10.60
2023-04-06T03:00:57.447Z,7.70
2023-04-06T03:03:26.335Z,8.60
2023-04-06T03:05:55.651Z,10.10
2023-04-06T03:08:31.351Z,7.90
2023-04-06T03:11:00.525Z,8.60
2023-04-06T03:13:35.554Z,7.50
2023-04-06T03:16:03.671Z,8.10
2023-04-06T03:18:32.729Z,8.90
2023-04-06T03:21:02.137Z,8.70
2023-04-06T03:23:38.287Z,8.80
2023-04-06T03:26:06.690Z,8.50
2023-04-06T03:28:34.539Z,8.00
2023-04-06T03:31:08.803Z,8.70
2023-04-06T03:33:43.696Z,9.10
2023-04-06T03:36:15.797Z,10.40
2023-04-06T03:38:47.905Z,8.20
2023-04-06T03:41:16.139Z,8.60
2023-04-06T03:43:51.085Z,8.10
2023-04-06T03:46:19.630Z,7.90
2023-04-06T03:48:49.914Z,8.10
2023-04-06T03:51:18.296Z,7.80
2023-04-06T03:55:52.837Z,7.80
2023-04-06T03:58:20.961Z,8.00
2023-04-06T04:00:48.790Z,7.10
2023-04-06T04:03:17.781Z,7.00
2023-04-06T04:05:46.024Z,6.20
2023-04-06T04:08:14.508Z,6.80
2023-04-06T04:10:42.856Z,6.90
2023-04-06T04:13:11.304Z,6.10
2023-04-06T04:15:48.834Z,5.70
2023-04-06T04:18:17.407Z,7.10
2023-04-06T04:20:45.829Z,6.30
2023-04-06T04:23:14.006Z,6.80
2023-04-06T04:25:44.513Z,6.90
2023-04-06T04:28:12.588Z,6.40
2023-04-06T04:30:42.860Z,6.90
2023-04-06T04:33:12.379Z,7.00
2023-04-06T04:35:40.359Z,7.20
2023-04-06T04:38:08.974Z,7.00
2023-04-06T04:40:38.758Z,7.60
2023-04-06T04:43:10.931Z,7.60
2023-04-06T04:45:42.697Z,7.40
2023-04-06T04:48:24.472Z,6.60
2023-04-06T04:50:57.357Z,7.70
2023-04-06T04:53:27.748Z,6.00
2023-04-06T04:56:00.304Z,7.40
2023-04-06T04:58:32.932Z,6.70
2023-04-06T05:01:01.696Z,6.70
2023-04-06T05:03:31.271Z,6.60
2023-04-06T05:06:04.544Z,6.50
2023-04-06T05:08:35.751Z,6.50
2023-04-06T05:11:04.092Z,7.00
2023-04-06T05:13:35.753Z,7.10
2023-04-06T05:16:08.452Z,6.60
2023-04-06T05:18:37.501Z,7.00
2023-04-06T05:21:07.023Z,6.10
2023-04-06T05:23:51.030Z,6.50
2023-04-06T05:26:19.635Z,6.80
2023-04-06T05:28:48.152Z,6.10
2023-04-06T05:31:20.598Z,7.10
2023-04-06T05:33:51.228Z,7.30
2023-04-06T05:36:29.412Z,6.00
2023-04-06T05:38:57.886Z,7.50
2023-04-06T05:41:36.857Z,7.20
2023-04-06T05:44:05.443Z,6.90
2023-04-06T05:46:34.144Z,6.40
2023-04-06T05:49:06.873Z,5.60
2023-04-06T05:51:36.285Z,6.70
2023-04-06T05:54:04.502Z,5.70
2023-04-06T05:56:33.652Z,5.00
2023-04-06T05:59:02.176Z,6.20
2023-04-06T06:01:32.519Z,6.00
2023-04-06T06:04:02.053Z,6.10
2023-04-06T06:06:31.314Z,4.70
2023-04-06T06:09:17.479Z,5.10
2023-04-06T06:12:10.872Z,5.60
2023-04-06T06:14:40.586Z,5.10
2023-04-06T06:17:09.282Z,5.70
2023-04-06T06:19:39.704Z,5.60
2023-04-06T06:22:08.872Z,5.30
2023-04-06T06:24:39.471Z,6.10
2023-04-06T06:27:08.865Z,6.10
2023-04-06T06:29:37.434Z,5.70
2023-04-06T06:32:06.186Z,6.10
2023-04-06T06:34:34.408Z,6.10
2023-04-06T06:37:04.018Z,6.20
2023-04-06T06:39:32.252Z,5.60
2023-04-06T06:42:04.053Z,4.90
2023-04-06T06:44:46.465Z,5.80
2023-04-06T06:47:14.801Z,6.00
2023-04-06T06:49:42.666Z,5.10
2023-04-06T06:52:10.609Z,4.50
2023-04-06T06:54:38.592Z,4.80
2023-04-06T06:57:06.802Z,5.70
2023-04-06T06:59:35.360Z,4.90
2023-04-06T07:02:03.492Z,4.90
2023-04-06T07:04:32.042Z,5.80
2023-04-06T07:07:00.108Z,4.60
2023-04-06T07:09:28.890Z,5.20
2023-04-06T07:11:57.632Z,4.80
2023-04-06T07:14:28.398Z,4.60
2023-04-06T07:16:56.841Z,5.10
2023-04-06T07:19:25.704Z,3.90
2023-04-06T07:21:53.981Z,4.30
2023-04-06T07:24:21.953Z,4.40
2023-04-06T07:26:51.950Z,4.00
2023-04-06T07:29:19.905Z,3.70
2023-04-06T07:31:48.040Z,3.40
2023-04-06T07:34:17.681Z,3.70
2023-04-06T07:36:50.724Z,4.10
2023-04-06T07:39:18.842Z,3.80
2023-04-06T07:41:47.387Z,2.90
2023-04-06T07:44:16.142Z,3.90
2023-04-06T07:46:44.979Z,2.90
2023-04-06T07:49:13.350Z,3.30
2023-04-06T07:51:42.647Z,4.10
2023-04-06T07:54:10.572Z,2.80
2023-04-06T07:56:38.770Z,3.40
2023-04-06T07:59:06.690Z,3.00
2023-04-06T08:01:35.021Z,2.60
2023-04-06T08:04:03.536Z,3.50
2023-04-06T08:06:31.786Z,2.80
2023-04-06T08:09:00.113Z,5.00
2023-04-06T08:11:29.065Z,3.30
2023-04-06T08:13:58.029Z,3.80
2023-04-06T08:16:25.951Z,3.80
2023-04-06T08:18:54.247Z,3.70
2023-04-06T08:21:22.177Z,3.80
2023-04-06T08:23:51.414Z,3.80
2023-04-06T08:26:19.962Z,3.60
2023-04-06T08:28:51.583Z,3.40
2023-04-06T08:31:19.849Z,2.90
2023-04-06T08:33:48.748Z,3.30
2023-04-06T08:36:19.283Z,2.90
2023-04-06T08:38:47.408Z,2.40
2023-04-06T08:41:15.931Z,2.80
2023-04-06T08:43:48.621Z,2.80
2023-04-06T08:46:17.200Z,2.60
2023-04-06T08:48:45.981Z,2.80
2023-04-06T08:51:14.439Z,2.10
2023-04-06T08:53:42.477Z,3.10
2023-04-06T08:56:11.278Z,2.60
2023-04-06T08:58:40.567Z,3.30
2023-04-06T09:01:12.578Z,2.30
2023-04-06T09:03:46.208Z,2.80
2023-04-06T09:06:14.413Z,3.30
2023-04-06T09:08:42.491Z,3.10
2023-04-06T09:11:10.644Z,2.80
2023-04-06T09:13:52.433Z,2.80
2023-04-06T09:16:20.753Z,3.70
2023-04-06T09:18:49.152Z,3.10
2023-04-06T09:21:18.353Z,2.60
2023-04-06T09:23:46.404Z,3.10
2023-04-06T09:26:18.905Z,3.40
2023-04-06T09:28:50.345Z,2.60
2023-04-06T09:31:31.389Z,3.50
2023-04-06T09:33:59.972Z,3.00
2023-04-06T09:36:32.483Z,3.90
2023-04-06T09:39:05.509Z,3.40
2023-04-06T09:41:35.757Z,3.90
2023-04-06T09:44:12.621Z,3.40
2023-04-06T09:46:58.679Z,3.20
2023-04-06T09:49:31.476Z,3.30
2023-04-06T09:52:00.948Z,3.50
2023-04-06T09:54:30.487Z,2.90
2023-04-06T09:57:14.860Z,3.60
2023-04-06T10:00:22.009Z,2.90
2023-04-06T10:05:49.847Z,3.10
2023-04-06T10:08:17.733Z,2.70
2023-04-06T10:10:47.362Z,2.30
2023-04-06T10:13:15.243Z,2.50
2023-04-06T10:15:43.173Z,2.80
2023-04-06T10:18:11.735Z,2.20
2023-04-06T10:21:01.938Z,2.40
2023-04-06T10:23:32.904Z,2.60
2023-04-06T10:26:01.935Z,2.40
2023-04-06T10:28:35.417Z,2.20
2023-04-06T10:31:06.634Z,2.80
2023-04-06T10:33:37.621Z,2.10
2023-04-06T10:36:15.843Z,2.70
2023-04-06T10:38:43.970Z,3.10
2023-04-06T10:41:12.851Z,2.90
2023-04-06T10:43:42.320Z,2.60
2023-04-06T10:46:12.657Z,3.00
2023-04-06T10:48:51.099Z,2.60
2023-04-06T10:51:19.583Z,3.40
2023-04-06T10:53:49.335Z,2.70
2023-04-06T10:56:19.102Z,4.30
2023-04-06T10:58:56.934Z,4.60
2023-04-06T11:01:27.289Z,4.10
2023-04-06T11:03:59.218Z,4.90
2023-04-06T11:06:32.492Z,3.90
2023-04-06T11:09:01.362Z,4.90
2023-04-06T11:11:30.136Z,4.60
2023-04-06T11:14:02.763Z,3.90
2023-04-06T11:16:32.827Z,3.70
2023-04-06T11:19:02.608Z,4.50
2023-04-06T11:21:41.306Z,4.50
2023-04-06T11:24:17.897Z,4.80
2023-04-06T11:26:53.385Z,5.40
2023-04-06T11:29:27.494Z,5.60
2023-04-06T11:31:59.719Z,5.60
2023-04-06T11:34:29.759Z,6.00
2023-04-06T11:37:02.877Z,6.00
2023-04-06T11:39:31.330Z,5.20
2023-04-06T11:42:00.988Z,6.00
2023-04-06T11:44:36.284Z,6.20
2023-04-06T11:47:13.052Z,5.70
2023-04-06T11:49:51.584Z,6.60
2023-04-06T11:52:21.461Z,6.10
2023-04-06T11:54:51.356Z,6.20
2023-04-06T11:57:20.502Z,6.60
2023-04-06T11:59:48.784Z,7.40
2023-04-06T12:02:16.797Z,7.90
2023-04-06T12:04:45.132Z,7.60
2023-04-06T12:07:13.147Z,7.80
2023-04-06T12:09:42.171Z,6.40
2023-04-06T12:12:10.066Z,8.50
2023-04-06T12:14:39.697Z,7.50
2023-04-06T12:17:07.976Z,7.40
2023-04-06T12:19:36.191Z,7.60
2023-04-06T12:22:04.234Z,6.90
2023-04-06T12:24:32.207Z,7.50
2023-04-06T12:27:10.019Z,7.50
2023-04-06T12:29:39.382Z,8.10
2023-04-06T12:32:07.701Z,8.90
2023-04-06T12:34:36.497Z,8.00
2023-04-06T12:37:04.398Z,8.30
2023-04-06T12:39:36.214Z,8.60
2023-04-06T12:42:04.436Z,8.10
2023-04-06T12:44:32.377Z,7.80
2023-04-06T12:47:00.729Z,7.60
2023-04-06T12:49:29.880Z,8.30
2023-04-06T12:52:06.609Z,7.80
2023-04-06T12:54:34.883Z,9.00
2023-04-06T12:57:03.137Z,9.60
2023-04-06T12:59:36.518Z,8.90
2023-04-06T13:02:06.031Z,9.70
2023-04-06T13:04:34.157Z,9.40
2023-04-06T13:07:05.985Z,9.10
2023-04-06T13:09:33.925Z,9.60
2023-04-06T13:12:02.197Z,10.00
2023-04-06T13:14:30.607Z,9.10
2023-04-06T13:16:58.655Z,9.10
2023-04-06T13:19:27.526Z,8.60
2023-04-06T13:21:56.036Z,10.20
2023-04-06T13:24:24.299Z,8.90
2023-04-06T13:26:52.463Z,10.70
2023-04-06T13:29:20.698Z,9.30
2023-04-06T13:31:48.833Z,10.00
2023-04-06T13:34:17.168Z,10.30
2023-04-06T13:36:45.383Z,8.70
2023-04-06T13:39:13.699Z,10.10
2023-04-06T13:41:42.135Z,9.80
2023-04-06T13:44:10.034Z,7.60
2023-04-06T13:46:38.772Z,8.70
2023-04-06T13:49:07.305Z,9.40
2023-04-06T13:51:36.407Z,9.80
2023-04-06T13:54:04.641Z,8.40
2023-04-06T13:56:33.133Z,8.60
2023-04-06T13:59:01.482Z,9.00
2023-04-06T14:01:30.058Z,8.60
2023-04-06T14:03:59.208Z,9.30
2023-04-06T14:06:31.854Z,8.30
2023-04-06T14:09:00.814Z,8.80
2023-04-06T14:11:33.056Z,8.80
2023-04-06T14:14:01.978Z,8.30
2023-04-06T14:16:30.023Z,9.00
2023-04-06T14:18:59.806Z,8.40
2023-04-06T14:21:27.820Z,9.10
2023-04-06T14:23:58.060Z,8.20
2023-04-06T14:26:28.567Z,7.80
2023-04-06T14:29:03.261Z,6.80
2023-04-06T14:31:31.520Z,8.30
2023-04-06T14:34:02.412Z,9.10
2023-04-06T14:36:37.564Z,7.60
2023-04-06T14:39:06.973Z,7.90
2023-04-06T14:41:37.458Z,6.90
2023-04-06T14:44:06.786Z,5.80
2023-04-06T14:46:35.236Z,6.20
2023-04-06T14:49:04.470Z,7.50
2023-04-06T14:51:35.029Z,7.90
2023-04-06T14:54:06.128Z,7.00
2023-04-06T14:56:34.093Z,6.50
2023-04-06T14:59:02.715Z,5.90
2023-04-06T15:01:31.060Z,6.10
2023-04-06T15:04:00.478Z,6.70
2023-04-06T15:06:31.551Z,6.80
2023-04-06T15:09:00.442Z,8.60
2023-04-06T15:11:28.871Z,7.40
2023-04-06T15:14:01.024Z,8.90
2023-04-06T15:16:33.581Z,10.50
2023-04-06T15:19:02.588Z,9.10
2023-04-06T15:21:33.627Z,8.30
2023-04-06T15:24:01.859Z,8.60
2023-04-06T15:26:30.271Z,7.30
2023-04-06T15:28:58.114Z,8.60
2023-04-06T15:31:36.919Z,9.50
2023-04-06T15:34:09.044Z,9.30
2023-04-06T15:36:37.296Z,9.50
2023-04-06T15:39:09.495Z,8.60
2023-04-06T15:41:37.450Z,10.50
2023-04-06T15:44:05.580Z,10.30
2023-04-06T15:46:35.428Z,9.00
2023-04-06T15:49:03.512Z,8.70
2023-04-06T15:51:31.553Z,9.00
2023-04-06T15:53:59.415Z,9.90
2023-04-06T15:56:27.248Z,9.80
2023-04-06T15:59:01.330Z,10.30
2023-04-06T16:01:30.984Z,8.80
2023-04-06T16:03:59.590Z,6.90
2023-04-06T16:06:27.661Z,7.00
2023-04-06T16:08:57.676Z,7.00
2023-04-06T16:12:52.576Z,6.20
2023-04-06T16:15:20.727Z,6.40
2023-04-06T16:17:51.807Z,7.50
2023-04-06T16:20:19.972Z,7.60
2023-04-06T16:22:49.960Z,6.30
2023-04-06T16:25:18.000Z,6.80
2023-04-06T16:27:46.933Z,7.20
2023-04-06T16:30:15.324Z,6.30
2023-04-06T16:32:45.781Z,7.50
2023-04-06T16:35:14.936Z,6.90
2023-04-06T16:37:44.157Z,6.10
2023-04-06T16:40:12.271Z,7.00
2023-04-06T16:42:43.577Z,5.80
2023-04-06T16:45:11.956Z,4.70
2023-04-06T16:47:40.866Z,4.70
2023-04-06T16:50:09.361Z,5.10
2023-04-06T16:52:37.416Z,4.80
2023-04-06T16:55:06.310Z,4.90
2023-04-06T16:57:34.591Z,5.40
2023-04-06T17:00:03.229Z,4.10
2023-04-06T17:02:36.342Z,4.60
2023-04-06T17:05:04.742Z,5.10
2023-04-06T17:07:33.195Z,4.20
2023-04-06T17:10:02.167Z,4.30
2023-04-06T17:12:31.074Z,4.70
2023-04-06T17:15:00.778Z,5.20
2023-04-06T17:17:29.206Z,5.40
2023-04-06T17:19:59.241Z,5.70
2023-04-06T17:22:27.110Z,4.50
2023-04-06T17:24:55.302Z,6.30
2023-04-06T17:27:23.824Z,5.40
2023-04-06T17:29:51.677Z,5.60
2023-04-06T17:32:21.546Z,6.00
2023-04-06T17:34:49.668Z,4.90
2023-04-06T17:37:17.753Z,4.90
2023-04-06T17:39:46.240Z,4.70
2023-04-06T17:42:14.166Z,4.50
2023-04-06T17:44:43.188Z,5.00
2023-04-06T17:47:11.385Z,5.10
2023-04-06T17:49:39.286Z,4.90
2023-04-06T17:52:07.368Z,3.90
2023-04-06T17:54:35.753Z,4.30
2023-04-06T17:57:04.071Z,5.20
2023-04-06T17:59:32.160Z,4.50
2023-04-06T18:02:00.301Z,4.30
2023-04-06T18:04:28.500Z,4.90
2023-04-06T18:06:56.628Z,5.60
2023-04-06T18:12:01.272Z,4.20
2023-04-06T18:14:29.577Z,3.90
2023-04-06T18:17:01.842Z,4.00
2023-04-06T18:19:31.560Z,3.50
2023-04-06T18:21:59.411Z,2.80
2023-04-06T18:24:41.369Z,3.90
2023-04-06T18:27:11.365Z,3.40
2023-04-06T18:29:45.369Z,3.60
2023-04-06T18:32:16.779Z,4.90
2023-04-06T18:34:45.531Z,4.50
2023-04-06T18:37:14.015Z,5.70
2023-04-06T18:39:42.932Z,5.60
2023-04-06T18:42:11.529Z,4.70
2023-04-06T18:44:39.748Z,5.40
2023-04-06T18:47:07.563Z,6.80
2023-04-06T18:49:35.930Z,6.50
2023-04-06T18:52:06.845Z,6.70
2023-04-06T18:54:34.981Z,7.60
2023-04-06T18:57:04.897Z,8.00
2023-04-06T18:59:32.919Z,7.70
2023-04-06T19:02:03.574Z,7.40
2023-04-06T19:04:32.023Z,7.80
2023-04-06T19:07:01.031Z,9.10
2023-04-06T19:09:30.730Z,11.00
2023-04-06T19:12:01.407Z,9.40
2023-04-06T19:14:33.107Z,8.20
2023-04-06T19:17:11.386Z,7.80
2023-04-06T19:19:40.395Z,8.50
2023-04-06T19:22:08.257Z,6.80
2023-04-06T19:24:37.738Z,5.10
2023-04-06T19:27:05.951Z,5.60
2023-04-06T19:29:36.317Z,4.90
2023-04-06T19:32:04.760Z,5.90
2023-04-06T19:34:32.732Z,4.90
2023-04-06T19:37:01.422Z,3.70
2023-04-06T19:39:30.074Z,2.80
2023-04-06T19:41:59.281Z,3.60
2023-04-06T19:44:27.519Z,3.30
2023-04-06T19:46:56.191Z,2.80
2023-04-06T19:49:24.250Z,2.50
2023-04-06T19:51:52.212Z,2.30
2023-04-06T19:54:20.858Z,1.40
2023-04-06T19:56:48.913Z,4.80
2023-04-06T19:59:17.747Z,4.20
2023-04-06T20:01:46.550Z,2.50
2023-04-06T20:04:14.755Z,2.90
2023-04-06T20:06:43.038Z,1.50
2023-04-06T20:09:12.057Z,6.70
2023-04-06T20:11:41.125Z,6.00
2023-04-06T20:14:10.126Z,1.80
2023-04-06T20:16:38.918Z,1.80
2023-04-06T20:19:06.838Z,2.80
2023-04-06T20:21:36.863Z,1.80
2023-04-06T20:24:06.666Z,0.80
2023-04-06T20:26:35.673Z,1.10
2023-04-06T20:29:03.599Z,0.80
2023-04-06T20:31:33.088Z,0.90
2023-04-06T20:34:01.749Z,0.80
2023-04-06T20:36:31.576Z,0.80
2023-04-06T20:38:59.540Z,0.60
2023-04-06T20:41:28.348Z,0.70
2023-04-06T20:43:56.437Z,0.70
2023-04-06T20:46:25.235Z,0.90
2023-04-06T20:48:53.570Z,0.80
2023-04-06T20:51:23.811Z,0.90
2023-04-06T20:53:53.098Z,1.20
2023-04-06T20:56:22.188Z,0.80
2023-04-06T20:58:50.595Z,1.10
2023-04-06T21:01:18.898Z,0.90
2023-04-06T21:03:48.748Z,0.90
2023-04-06T21:06:16.807Z,1.10
2023-04-06T21:08:44.626Z,1.10
2023-04-06T21:11:13.223Z,0.90
2023-04-06T21:13:41.196Z,1.00
2023-04-06T21:16:10.416Z,1.20
2023-04-06T21:18:38.863Z,0.80
2023-04-06T21:21:07.031Z,0.90
2023-04-06T21:23:35.621Z,0.90
2023-04-06T21:26:03.482Z,0.90
2023-04-06T21:28:31.594Z,0.80
2023-04-06T21:30:59.903Z,0.80
2023-04-06T21:33:30.586Z,0.90
2023-04-06T21:35:58.468Z,0.80
2023-04-06T21:38:27.122Z,1.00
2023-04-06T21:40:56.183Z,0.90
2023-04-06T21:43:24.064Z,0.70
2023-04-06T21:45:51.946Z,1.10
2023-04-06T21:48:20.693Z,0.90
2023-04-06T21:50:48.597Z,0.80
2023-04-06T21:53:16.416Z,0.80
2023-04-06T21:55:45.047Z,0.80
2023-04-06T21:58:12.966Z,1.10
2023-04-06T22:00:40.877Z,0.90
2023-04-06T22:03:10.063Z,0.90
2023-04-06T22:05:39.444Z,0.80
2023-04-06T22:08:09.634Z,0.80
2023-04-06T22:10:40.640Z,0.90
2023-04-06T22:13:09.858Z,0.80
2023-04-06T22:15:37.767Z,0.80
2023-04-06T22:18:05.853Z,0.80
2023-04-06T22:20:35.106Z,1.00
2023-04-06T22:23:03.300Z,0.80
2023-04-06T22:25:32.475Z,0.70
2023-04-06T22:28:00.520Z,1.10
2023-04-06T22:30:28.541Z,1.20
2023-04-06T22:33:06.873Z,0.80
2023-04-06T22:35:35.965Z,0.80
2023-04-06T22:38:04.564Z,0.90
2023-04-06T22:40:33.426Z,0.90
2023-04-06T22:43:01.367Z,0.90
2023-04-06T22:45:29.481Z,1.00
2023-04-06T22:47:57.344Z,0.90
2023-04-06T22:50:25.962Z,0.80
2023-04-06T22:52:54.020Z,1.00
2023-04-06T22:55:25.480Z,1.00
2023-04-06T22:57:53.612Z,0.70
2023-04-06T23:00:21.737Z,0.70
2023-04-06T23:02:53.652Z,0.70
2023-04-06T23:05:21.768Z,0.80
2023-04-06T23:07:51.328Z,0.80
2023-04-06T23:10:28.836Z,0.80
2023-04-06T23:12:57.374Z,0.90
2023-04-06T23:15:25.426Z,0.70
2023-04-06T23:17:53.309Z,0.70
2023-04-06T23:20:22.729Z,0.70
2023-04-06T23:22:51.037Z,0.80
2023-04-06T23:25:19.120Z,0.70
2023-04-06T23:27:47.308Z,0.80
2023-04-06T23:30:15.777Z,0.70
2023-04-06T23:32:44.767Z,0.80
2023-04-06T23:35:12.742Z,0.60
2023-04-06T23:37:40.674Z,0.70
2023-04-06T23:40:09.117Z,0.80
2023-04-06T23:42:37.503Z,0.80
2023-04-06T23:45:06.236Z,0.80
2023-04-06T23:47:34.109Z,0.70
2023-04-06T23:50:02.180Z,0.70
2023-04-06T23:52:30.779Z,0.80
2023-04-06T23:54:59.160Z,0.70
2023-04-06T23:57:27.040Z,0.80
2023-04-06T23:59:54.876Z,0.70
